sensor_id;sensor_type;location;lat;lon;timestamp;pressure;altitude;pressure_sealevel;temperature;humidity
59055;BME280;44845;51.444;7.460;2023-08-06T00:01:37;98707.00;;;15.45;94.12
59055;BME280;44845;51.444;7.460;2023-08-06T00:04:03;98718.41;;;15.45;94.85
59055;BME280;44845;51.444;7.460;2023-08-06T00:06:28;98722.97;;;15.41;94.66
59055;BME280;44845;51.444;7.460;2023-08-06T00:08:53;98715.81;;;15.43;94.77
59055;BME280;44845;51.444;7.460;2023-08-06T00:11:20;98715.00;;;15.43;94.70
59055;BME280;44845;51.444;7.460;2023-08-06T00:13:45;98707.00;;;15.45;95.25
59055;BME280;44845;51.444;7.460;2023-08-06T00:16:11;98707.00;;;15.45;94.87
59055;BME280;44845;51.444;7.460;2023-08-06T00:18:37;98709.53;;;15.46;94.65
59055;BME280;44845;51.444;7.460;2023-08-06T00:21:03;98703.25;;;15.49;94.50
59055;BME280;44845;51.444;7.460;2023-08-06T00:23:28;98708.72;;;15.46;94.43
59055;BME280;44845;51.444;7.460;2023-08-06T00:25:54;98703.47;;;15.44;94.59
59055;BME280;44845;51.444;7.460;2023-08-06T00:28:19;98703.84;;;15.36;94.78
59055;BME280;44845;51.444;7.460;2023-08-06T00:30:44;98699.97;;;15.43;94.79
59055;BME280;44845;51.444;7.460;2023-08-06T00:33:10;98698.41;;;15.39;95.07
59055;BME280;44845;51.444;7.460;2023-08-06T00:35:35;98693.44;;;15.33;95.20
59055;BME280;44845;51.444;7.460;2023-08-06T00:38:00;98693.13;;;15.39;94.90
59055;BME280;44845;51.444;7.460;2023-08-06T00:40:26;98696.13;;;15.31;95.55
59055;BME280;44845;51.444;7.460;2023-08-06T00:42:53;98693.28;;;15.36;94.91
59055;BME280;44845;51.444;7.460;2023-08-06T00:45:19;98681.78;;;15.37;95.29
59055;BME280;44845;51.444;7.460;2023-08-06T00:47:45;98686.94;;;15.40;95.37
59055;BME280;44845;51.444;7.460;2023-08-06T00:50:11;98680.88;;;15.38;95.84
59055;BME280;44845;51.444;7.460;2023-08-06T00:52:36;98673.56;;;15.43;95.63
59055;BME280;44845;51.444;7.460;2023-08-06T00:55:02;98684.13;;;15.43;95.52
59055;BME280;44845;51.444;7.460;2023-08-06T00:57:28;98674.44;;;15.44;95.75
59055;BME280;44845;51.444;7.460;2023-08-06T00:59:54;98674.50;;;15.42;94.88
59055;BME280;44845;51.444;7.460;2023-08-06T01:02:19;98672.94;;;15.38;94.76
59055;BME280;44845;51.444;7.460;2023-08-06T01:04:44;98658.75;;;15.41;95.07
59055;BME280;44845;51.444;7.460;2023-08-06T01:07:21;98651.81;;;15.38;95.35
59055;BME280;44845;51.444;7.460;2023-08-06T01:12:45;98663.59;;;15.31;95.29
59055;BME280;44845;51.444;7.460;2023-08-06T01:15:27;98654.38;;;15.40;95.50
59055;BME280;44845;51.444;7.460;2023-08-06T01:17:53;98645.72;;;15.36;95.07
59055;BME280;44845;51.444;7.460;2023-08-06T01:20:19;98638.59;;;15.38;95.03
59055;BME280;44845;51.444;7.460;2023-08-06T01:22:45;98641.47;;;15.34;94.93
59055;BME280;44845;51.444;7.460;2023-08-06T01:25:10;98639.00;;;15.29;94.61
59055;BME280;44845;51.444;7.460;2023-08-06T01:27:46;98631.03;;;15.30;94.49
59055;BME280;44845;51.444;7.460;2023-08-06T01:32:44;98637.19;;;15.31;94.73
59055;BME280;44845;51.444;7.460;2023-08-06T01:35:12;98639.84;;;15.31;94.95
59055;BME280;44845;51.444;7.460;2023-08-06T01:37:39;98640.59;;;15.33;94.38
59055;BME280;44845;51.444;7.460;2023-08-06T01:40:12;98639.31;;;15.23;94.85
59055;BME280;44845;51.444;7.460;2023-08-06T01:42:38;98644.16;;;15.32;94.47
59055;BME280;44845;51.444;7.460;2023-08-06T01:45:05;98637.25;;;15.29;94.79
59055;BME280;44845;51.444;7.460;2023-08-06T01:47:31;98629.09;;;15.34;94.64
59055;BME280;44845;51.444;7.460;2023-08-06T01:49:56;98637.19;;;15.31;94.28
59055;BME280;44845;51.444;7.460;2023-08-06T01:52:21;98637.09;;;15.33;94.67
59055;BME280;44845;51.444;7.460;2023-08-06T01:54:47;98635.59;;;15.27;94.64
59055;BME280;44845;51.444;7.460;2023-08-06T01:57:12;98643.47;;;15.28;94.45
59055;BME280;44845;51.444;7.460;2023-08-06T01:59:38;98634.59;;;15.29;94.94
59055;BME280;44845;51.444;7.460;2023-08-06T02:02:03;98636.25;;;15.32;95.19
59055;BME280;44845;51.444;7.460;2023-08-06T02:04:29;98634.47;;;15.33;94.93
59055;BME280;44845;51.444;7.460;2023-08-06T02:06:54;98628.31;;;15.32;95.12
59055;BME280;44845;51.444;7.460;2023-08-06T02:09:19;98638.19;;;15.28;95.10
59055;BME280;44845;51.444;7.460;2023-08-06T02:11:45;98630.91;;;15.34;95.53
59055;BME280;44845;51.444;7.460;2023-08-06T02:14:10;98635.47;;;15.30;95.43
59055;BME280;44845;51.444;7.460;2023-08-06T02:16:35;98630.19;;;15.30;95.98
59055;BME280;44845;51.444;7.460;2023-08-06T02:19:01;98624.03;;;15.29;95.14
59055;BME280;44845;51.444;7.460;2023-08-06T02:21:26;98621.03;;;15.37;95.61
59055;BME280;44845;51.444;7.460;2023-08-06T02:23:51;98621.16;;;15.34;94.50
59055;BME280;44845;51.444;7.460;2023-08-06T02:26:17;98615.75;;;15.37;95.28
59055;BME280;44845;51.444;7.460;2023-08-06T02:28:42;98616.41;;;15.42;95.20
59055;BME280;44845;51.444;7.460;2023-08-06T02:31:08;98607.19;;;15.32;94.77
59055;BME280;44845;51.444;7.460;2023-08-06T02:33:33;98604.84;;;15.26;95.38
59055;BME280;44845;51.444;7.460;2023-08-06T02:35:59;98603.84;;;15.28;95.22
59055;BME280;44845;51.444;7.460;2023-08-06T02:38:26;98604.78;;;15.27;94.46
59055;BME280;44845;51.444;7.460;2023-08-06T02:40:51;98596.19;;;15.22;94.99
59055;BME280;44845;51.444;7.460;2023-08-06T02:43:17;98593.66;;;15.20;95.20
59055;BME280;44845;51.444;7.460;2023-08-06T02:45:42;98595.66;;;15.15;95.38
59055;BME280;44845;51.444;7.460;2023-08-06T02:48:07;98581.31;;;15.21;95.05
59055;BME280;44845;51.444;7.460;2023-08-06T02:50:39;98575.06;;;15.22;94.61
59055;BME280;44845;51.444;7.460;2023-08-06T02:53:08;98573.38;;;15.21;94.04
59055;BME280;44845;51.444;7.460;2023-08-06T02:55:34;98573.16;;;15.26;94.79
59055;BME280;44845;51.444;7.460;2023-08-06T02:58:01;98568.94;;;15.22;94.23
59055;BME280;44845;51.444;7.460;2023-08-06T03:00:27;98570.78;;;15.19;94.22
59055;BME280;44845;51.444;7.460;2023-08-06T03:02:52;98574.66;;;15.12;93.70
59055;BME280;44845;51.444;7.460;2023-08-06T03:05:18;98565.19;;;15.08;94.17
59055;BME280;44845;51.444;7.460;2023-08-06T03:07:43;98564.25;;;15.09;93.82
59055;BME280;44845;51.444;7.460;2023-08-06T03:10:09;98558.19;;;15.07;93.14
59055;BME280;44845;51.444;7.460;2023-08-06T03:12:37;98556.84;;;14.98;93.00
59055;BME280;44845;51.444;7.460;2023-08-06T03:15:02;98559.69;;;14.93;92.92
59055;BME280;44845;51.444;7.460;2023-08-06T03:17:28;98559.84;;;14.90;93.27
59055;BME280;44845;51.444;7.460;2023-08-06T03:19:53;98557.97;;;14.92;93.02
59055;BME280;44845;51.444;7.460;2023-08-06T03:22:18;98557.97;;;14.92;93.49
59055;BME280;44845;51.444;7.460;2023-08-06T03:24:44;98547.56;;;14.89;92.46
59055;BME280;44845;51.444;7.460;2023-08-06T03:27:09;98556.41;;;14.88;92.45
59055;BME280;44845;51.444;7.460;2023-08-06T03:29:34;98547.81;;;14.83;92.61
59055;BME280;44845;51.444;7.460;2023-08-06T03:32:00;98551.81;;;14.72;92.67
59055;BME280;44845;51.444;7.460;2023-08-06T03:34:25;98550.75;;;14.77;92.89
59055;BME280;44845;51.444;7.460;2023-08-06T03:36:50;98551.66;;;14.75;92.93
59055;BME280;44845;51.444;7.460;2023-08-06T03:39:16;98554.31;;;14.75;92.73
59055;BME280;44845;51.444;7.460;2023-08-06T03:41:41;98555.38;;;14.71;93.49
59055;BME280;44845;51.444;7.460;2023-08-06T03:44:06;98555.38;;;14.71;93.26
59055;BME280;44845;51.444;7.460;2023-08-06T03:46:32;98555.38;;;14.71;93.05
59055;BME280;44845;51.444;7.460;2023-08-06T03:48:59;98542.25;;;14.70;93.52
59055;BME280;44845;51.444;7.460;2023-08-06T03:51:25;98543.09;;;14.70;93.79
59055;BME280;44845;51.444;7.460;2023-08-06T03:53:50;98543.19;;;14.69;93.84
59055;BME280;44845;51.444;7.460;2023-08-06T03:56:15;98537.13;;;14.67;94.35
59055;BME280;44845;51.444;7.460;2023-08-06T03:58:41;98535.28;;;14.69;94.50
59055;BME280;44845;51.444;7.460;2023-08-06T04:01:06;98536.84;;;14.73;94.17
59055;BME280;44845;51.444;7.460;2023-08-06T04:03:31;98542.97;;;14.73;93.75
59055;BME280;44845;51.444;7.460;2023-08-06T04:05:57;98539.56;;;14.71;93.60
59055;BME280;44845;51.444;7.460;2023-08-06T04:08:22;98540.19;;;14.77;93.69
59055;BME280;44845;51.444;7.460;2023-08-06T04:10:52;98535.06;;;14.73;93.13
59055;BME280;44845;51.444;7.460;2023-08-06T04:13:18;98539.41;;;14.74;93.28
59055;BME280;44845;51.444;7.460;2023-08-06T04:15:43;98533.41;;;14.71;93.68
59055;BME280;44845;51.444;7.460;2023-08-06T04:18:08;98539.41;;;14.74;92.87
59055;BME280;44845;51.444;7.460;2023-08-06T04:20:34;98533.50;;;14.69;93.09
59055;BME280;44845;51.444;7.460;2023-08-06T04:23:05;98530.69;;;14.72;93.25
59055;BME280;44845;51.444;7.460;2023-08-06T04:25:31;98536.25;;;14.66;92.80
59055;BME280;44845;51.444;7.460;2023-08-06T04:27:56;98536.41;;;14.63;93.25
59055;BME280;44845;51.444;7.460;2023-08-06T04:30:21;98544.19;;;14.66;92.73
59055;BME280;44845;51.444;7.460;2023-08-06T04:32:49;98543.66;;;14.58;93.30
59055;BME280;44845;51.444;7.460;2023-08-06T04:35:14;98541.97;;;14.57;92.90
59055;BME280;44845;51.444;7.460;2023-08-06T04:37:40;98531.13;;;14.63;93.01
59055;BME280;44845;51.444;7.460;2023-08-06T04:40:05;98527.84;;;14.58;93.06
59055;BME280;44845;51.444;7.460;2023-08-06T04:42:31;98530.34;;;14.61;93.95
59055;BME280;44845;51.444;7.460;2023-08-06T04:44:56;98529.56;;;14.59;93.49
59055;BME280;44845;51.444;7.460;2023-08-06T04:47:22;98533.84;;;14.61;93.91
59055;BME280;44845;51.444;7.460;2023-08-06T04:49:47;98532.50;;;14.52;93.80
59055;BME280;44845;51.444;7.460;2023-08-06T04:52:12;98527.00;;;14.57;93.89
59055;BME280;44845;51.444;7.460;2023-08-06T04:54:38;98521.94;;;14.52;93.67
59055;BME280;44845;51.444;7.460;2023-08-06T04:57:03;98533.84;;;14.61;94.02
59055;BME280;44845;51.444;7.460;2023-08-06T04:59:29;98528.25;;;14.48;94.27
59055;BME280;44845;51.444;7.460;2023-08-06T05:01:54;98514.59;;;14.59;94.29
59055;BME280;44845;51.444;7.460;2023-08-06T05:04:19;98527.84;;;14.58;94.28
59055;BME280;44845;51.444;7.460;2023-08-06T05:06:45;98528.44;;;14.64;93.90
59055;BME280;44845;51.444;7.460;2023-08-06T05:09:10;98531.13;;;14.63;93.97
59055;BME280;44845;51.444;7.460;2023-08-06T05:11:35;98533.31;;;14.72;94.86
59055;BME280;44845;51.444;7.460;2023-08-06T05:14:01;98541.19;;;14.74;94.71
59055;BME280;44845;51.444;7.460;2023-08-06T05:16:26;98539.84;;;14.84;94.40
59055;BME280;44845;51.444;7.460;2023-08-06T05:18:51;98540.69;;;14.85;94.45
59055;BME280;44845;51.444;7.460;2023-08-06T05:21:17;98538.03;;;14.86;94.84
59055;BME280;44845;51.444;7.460;2023-08-06T05:23:42;98543.31;;;14.85;94.41
59055;BME280;44845;51.444;7.460;2023-08-06T05:26:07;98533.31;;;14.93;94.59
59055;BME280;44845;51.444;7.460;2023-08-06T05:28:34;98535.00;;;14.94;94.27
59055;BME280;44845;51.444;7.460;2023-08-06T05:31:03;98540.91;;;15.00;93.62
59055;BME280;44845;51.444;7.460;2023-08-06T05:33:28;98545.28;;;15.01;94.72
59055;BME280;44845;51.444;7.460;2023-08-06T05:35:53;98538.34;;;14.98;94.52
59055;BME280;44845;51.444;7.460;2023-08-06T05:38:19;98543.97;;;15.09;94.13
59055;BME280;44845;51.444;7.460;2023-08-06T05:40:44;98545.97;;;15.24;95.23
59055;BME280;44845;51.444;7.460;2023-08-06T05:43:09;98544.13;;;15.26;92.88
59055;BME280;44845;51.444;7.460;2023-08-06T05:45:35;98543.53;;;15.38;95.01
59055;BME280;44845;51.444;7.460;2023-08-06T05:48:00;98543.06;;;15.48;95.86
59055;BME280;44845;51.444;7.460;2023-08-06T05:50:25;98549.59;;;15.58;96.02
59055;BME280;44845;51.444;7.460;2023-08-06T05:52:51;98551.00;;;15.65;96.06
59055;BME280;44845;51.444;7.460;2023-08-06T05:55:17;98541.91;;;15.71;95.82
59055;BME280;44845;51.444;7.460;2023-08-06T05:57:42;98543.53;;;15.74;96.20
59055;BME280;44845;51.444;7.460;2023-08-06T06:00:08;98536.09;;;15.82;96.39
59055;BME280;44845;51.444;7.460;2023-08-06T06:02:33;98537.78;;;15.83;96.90
59055;BME280;44845;51.444;7.460;2023-08-06T06:04:59;98543.00;;;15.85;96.01
59055;BME280;44845;51.444;7.460;2023-08-06T06:07:24;98543.69;;;15.88;96.05
59055;BME280;44845;51.444;7.460;2023-08-06T06:09:49;98541.03;;;15.88;95.73
59055;BME280;44845;51.444;7.460;2023-08-06T06:12:15;98544.00;;;16.00;95.41
59055;BME280;44845;51.444;7.460;2023-08-06T06:14:40;98547.44;;;16.02;95.41
59055;BME280;44845;51.444;7.460;2023-08-06T06:17:06;98551.91;;;16.00;94.75
59055;BME280;44845;51.444;7.460;2023-08-06T06:19:31;98548.44;;;15.99;93.78
59055;BME280;44845;51.444;7.460;2023-08-06T06:21:56;98556.28;;;16.01;95.10
59055;BME280;44845;51.444;7.460;2023-08-06T06:24:23;98552.72;;;16.02;95.63
59055;BME280;44845;51.444;7.460;2023-08-06T06:26:48;98551.00;;;16.01;95.60
59055;BME280;44845;51.444;7.460;2023-08-06T06:29:13;98562.34;;;16.03;95.20
59055;BME280;44845;51.444;7.460;2023-08-06T06:31:39;98551.91;;;16.00;94.56
59055;BME280;44845;51.444;7.460;2023-08-06T06:34:04;98561.56;;;16.01;95.06
59055;BME280;44845;51.444;7.460;2023-08-06T06:36:29;98561.56;;;16.01;93.87
59055;BME280;44845;51.444;7.460;2023-08-06T06:38:55;98558.94;;;16.01;94.34
59055;BME280;44845;51.444;7.460;2023-08-06T06:41:20;98563.28;;;16.02;95.24
59055;BME280;44845;51.444;7.460;2023-08-06T06:43:45;98558.72;;;16.06;95.20
59055;BME280;44845;51.444;7.460;2023-08-06T06:46:11;98561.91;;;16.13;95.29
59055;BME280;44845;51.444;7.460;2023-08-06T06:48:36;98555.53;;;16.17;95.26
59055;BME280;44845;51.444;7.460;2023-08-06T06:51:02;98556.38;;;16.17;95.53
59055;BME280;44845;51.444;7.460;2023-08-06T06:53:28;98560.50;;;16.23;95.77
59055;BME280;44845;51.444;7.460;2023-08-06T06:55:54;98565.78;;;16.23;96.19
59055;BME280;44845;51.444;7.460;2023-08-06T06:58:19;98565.78;;;16.23;95.20
59055;BME280;44845;51.444;7.460;2023-08-06T07:00:46;98563.91;;;16.25;95.32
59055;BME280;44845;51.444;7.460;2023-08-06T07:03:12;98563.91;;;16.25;95.26
59055;BME280;44845;51.444;7.460;2023-08-06T07:05:37;98562.22;;;16.06;93.03
59055;BME280;44845;51.444;7.460;2023-08-06T07:08:02;98567.50;;;16.24;92.95
59055;BME280;44845;51.444;7.460;2023-08-06T07:10:28;98571.53;;;16.31;95.47
59055;BME280;44845;51.444;7.460;2023-08-06T07:12:53;98562.75;;;16.31;93.08
59055;BME280;44845;51.444;7.460;2023-08-06T07:15:19;98564.13;;;16.38;94.81
59055;BME280;44845;51.444;7.460;2023-08-06T07:17:45;98560.63;;;16.20;91.96
59055;BME280;44845;51.444;7.460;2023-08-06T07:20:10;98562.69;;;16.15;91.46
59055;BME280;44845;51.444;7.460;2023-08-06T07:22:36;98560.25;;;16.28;90.90
59055;BME280;44845;51.444;7.460;2023-08-06T07:25:02;98566.16;;;16.33;90.85
59055;BME280;44845;51.444;7.460;2023-08-06T07:27:27;98570.81;;;16.46;92.65
59055;BME280;44845;51.444;7.460;2023-08-06T07:29:52;98570.91;;;16.44;90.64
59055;BME280;44845;51.444;7.460;2023-08-06T07:32:18;98571.31;;;16.52;90.07
59055;BME280;44845;51.444;7.460;2023-08-06T07:34:43;98576.47;;;16.55;92.49
59055;BME280;44845;51.444;7.460;2023-08-06T07:37:08;98585.00;;;16.61;92.20
59055;BME280;44845;51.444;7.460;2023-08-06T07:39:34;98586.19;;;16.55;88.76
59055;BME280;44845;51.444;7.460;2023-08-06T07:41:59;98590.81;;;16.51;88.88
59055;BME280;44845;51.444;7.460;2023-08-06T07:44:25;98590.88;;;16.50;85.87
59055;BME280;44845;51.444;7.460;2023-08-06T07:46:50;98588.63;;;16.42;86.00
59055;BME280;44845;51.444;7.460;2023-08-06T07:49:16;98588.72;;;16.40;88.76
59055;BME280;44845;51.444;7.460;2023-08-06T07:51:41;98592.66;;;16.49;87.83
59055;BME280;44845;51.444;7.460;2023-08-06T07:54:07;98590.63;;;16.54;86.03
59055;BME280;44845;51.444;7.460;2023-08-06T07:56:32;98590.59;;;16.38;85.13
59055;BME280;44845;51.444;7.460;2023-08-06T07:58:58;98594.41;;;16.32;86.02
59055;BME280;44845;51.444;7.460;2023-08-06T08:01:23;98593.63;;;16.30;87.64
59055;BME280;44845;51.444;7.460;2023-08-06T08:03:49;98593.97;;;16.24;87.09
59055;BME280;44845;51.444;7.460;2023-08-06T08:06:14;98592.22;;;16.23;86.93
59055;BME280;44845;51.444;7.460;2023-08-06T08:08:39;98595.66;;;16.25;87.75
59055;BME280;44845;51.444;7.460;2023-08-06T08:11:05;98594.44;;;16.15;87.05
59055;BME280;44845;51.444;7.460;2023-08-06T08:13:31;98592.84;;;16.10;86.29
59055;BME280;44845;51.444;7.460;2023-08-06T08:16:00;98597.28;;;16.10;85.38
59055;BME280;44845;51.444;7.460;2023-08-06T08:18:26;98594.88;;;16.05;85.91
59055;BME280;44845;51.444;7.460;2023-08-06T08:20:51;98595.97;;;16.19;86.36
59055;BME280;44845;51.444;7.460;2023-08-06T08:23:17;98592.84;;;16.28;84.62
59055;BME280;44845;51.444;7.460;2023-08-06T08:25:44;98591.06;;;16.11;84.64
59055;BME280;44845;51.444;7.460;2023-08-06T08:28:10;98595.81;;;16.22;86.64
59055;BME280;44845;51.444;7.460;2023-08-06T08:30:35;98587.94;;;16.20;84.28
59055;BME280;44845;51.444;7.460;2023-08-06T08:33:00;98589.56;;;16.41;84.84
59055;BME280;44845;51.444;7.460;2023-08-06T08:35:26;98585.81;;;16.45;84.80
59055;BME280;44845;51.444;7.460;2023-08-06T08:37:51;98586.59;;;16.47;85.35
59055;BME280;44845;51.444;7.460;2023-08-06T08:40:17;98586.19;;;16.55;86.67
59055;BME280;44845;51.444;7.460;2023-08-06T08:42:42;98591.63;;;16.52;86.90
59055;BME280;44845;51.444;7.460;2023-08-06T08:45:12;98587.53;;;16.46;86.46
59055;BME280;44845;51.444;7.460;2023-08-06T08:47:40;98589.66;;;16.73;85.89
59055;BME280;44845;51.444;7.460;2023-08-06T08:50:06;98597.13;;;16.65;86.39
59055;BME280;44845;51.444;7.460;2023-08-06T08:52:33;98603.16;;;16.85;85.25
59055;BME280;44845;51.444;7.460;2023-08-06T08:55:01;98587.63;;;16.79;83.67
59055;BME280;44845;51.444;7.460;2023-08-06T08:57:27;98599.06;;;16.95;87.37
59055;BME280;44845;51.444;7.460;2023-08-06T08:59:52;98595.81;;;16.90;84.29
59055;BME280;44845;51.444;7.460;2023-08-06T09:02:18;98595.66;;;16.93;83.43
59055;BME280;44845;51.444;7.460;2023-08-06T09:04:49;98595.81;;;17.06;85.83
59055;BME280;44845;51.444;7.460;2023-08-06T09:07:18;98607.56;;;17.18;88.19
59055;BME280;44845;51.444;7.460;2023-08-06T09:09:46;98613.50;;;17.06;88.76
59055;BME280;44845;51.444;7.460;2023-08-06T09:12:17;98608.81;;;17.11;89.07
59055;BME280;44845;51.444;7.460;2023-08-06T09:14:42;98598.97;;;17.13;88.66
59055;BME280;44845;51.444;7.460;2023-08-06T09:17:08;98606.16;;;17.11;89.79
59055;BME280;44845;51.444;7.460;2023-08-06T09:19:36;98608.59;;;17.16;89.73
59055;BME280;44845;51.444;7.460;2023-08-06T09:22:01;98618.38;;;16.97;86.38
59055;BME280;44845;51.444;7.460;2023-08-06T09:24:27;98617.19;;;17.03;86.29
59055;BME280;44845;51.444;7.460;2023-08-06T09:26:53;98620.25;;;16.95;86.62
59055;BME280;44845;51.444;7.460;2023-08-06T09:29:19;98617.41;;;16.98;87.18
59055;BME280;44845;51.444;7.460;2023-08-06T09:31:49;98627.44;;;16.93;88.28
59055;BME280;44845;51.444;7.460;2023-08-06T09:34:18;98623.69;;;16.97;84.12
59055;BME280;44845;51.444;7.460;2023-08-06T09:36:51;98621.59;;;16.86;84.73
59055;BME280;44845;51.444;7.460;2023-08-06T09:39:30;98628.63;;;17.04;86.07
59055;BME280;44845;51.444;7.460;2023-08-06T09:42:00;98630.50;;;17.02;82.44
59055;BME280;44845;51.444;7.460;2023-08-06T09:44:31;98625.59;;;16.77;83.18
59055;BME280;44845;51.444;7.460;2023-08-06T09:46:58;98631.06;;;16.74;83.77
59055;BME280;44845;51.444;7.460;2023-08-06T09:51:59;98632.66;;;17.11;86.33
59055;BME280;44845;51.444;7.460;2023-08-06T09:54:25;98630.56;;;17.18;84.79
59055;BME280;44845;51.444;7.460;2023-08-06T09:56:53;98634.63;;;17.07;80.29
59055;BME280;44845;51.444;7.460;2023-08-06T09:59:19;98625.88;;;16.89;81.26
59055;BME280;44845;51.444;7.460;2023-08-06T10:01:45;98631.00;;;16.92;81.37
59055;BME280;44845;51.444;7.460;2023-08-06T10:04:13;98631.34;;;16.86;82.62
59055;BME280;44845;51.444;7.460;2023-08-06T10:06:42;98632.88;;;16.90;82.05
59055;BME280;44845;51.444;7.460;2023-08-06T10:09:07;98633.56;;;16.94;82.74
59055;BME280;44845;51.444;7.460;2023-08-06T10:11:34;98637.72;;;17.16;82.07
59055;BME280;44845;51.444;7.460;2023-08-06T10:14:23;98633.59;;;17.10;81.53
59055;BME280;44845;51.444;7.460;2023-08-06T10:16:50;98642.00;;;17.18;79.73
59055;BME280;44845;51.444;7.460;2023-08-06T10:19:16;98636.72;;;17.51;82.32
59055;BME280;44845;51.444;7.460;2023-08-06T10:22:11;98623.63;;;17.48;77.51
59055;BME280;44845;51.444;7.460;2023-08-06T10:24:53;98627.50;;;17.42;80.02
59055;BME280;44845;51.444;7.460;2023-08-06T10:27:28;98622.63;;;17.34;81.30
59055;BME280;44845;51.444;7.460;2023-08-06T10:29:54;98622.53;;;17.52;79.24
59055;BME280;44845;51.444;7.460;2023-08-06T10:32:19;98627.31;;;17.61;77.46
59055;BME280;44845;51.444;7.460;2023-08-06T10:34:58;98622.00;;;17.61;76.95
59055;BME280;44845;51.444;7.460;2023-08-06T10:37:36;98624.38;;;17.66;75.24
59055;BME280;44845;51.444;7.460;2023-08-06T10:40:02;98627.72;;;17.70;74.10
59055;BME280;44845;51.444;7.460;2023-08-06T10:42:29;98627.03;;;17.66;75.45
59055;BME280;44845;51.444;7.460;2023-08-06T10:45:14;98626.59;;;17.74;75.71
59055;BME280;44845;51.444;7.460;2023-08-06T10:47:40;98615.47;;;17.83;78.71
59055;BME280;44845;51.444;7.460;2023-08-06T10:50:07;98620.06;;;17.96;79.93
59055;BME280;44845;51.444;7.460;2023-08-06T10:52:34;98628.06;;;18.10;80.98
59055;BME280;44845;51.444;7.460;2023-08-06T10:54:59;98617.56;;;17.93;77.04
59055;BME280;44845;51.444;7.460;2023-08-06T10:57:25;98622.91;;;17.76;75.92
59055;BME280;44845;51.444;7.460;2023-08-06T10:59:50;98622.75;;;18.10;77.63
59055;BME280;44845;51.444;7.460;2023-08-06T11:02:16;98622.13;;;18.21;79.88
59055;BME280;44845;51.444;7.460;2023-08-06T11:04:41;98625.63;;;18.22;79.63
59055;BME280;44845;51.444;7.460;2023-08-06T11:07:07;98631.47;;;18.12;77.36
59055;BME280;44845;51.444;7.460;2023-08-06T11:09:32;98631.34;;;18.30;79.84
59055;BME280;44845;51.444;7.460;2023-08-06T11:11:58;98640.81;;;18.34;80.70
59055;BME280;44845;51.444;7.460;2023-08-06T11:14:23;98641.88;;;18.46;79.90
59055;BME280;44845;51.444;7.460;2023-08-06T11:16:48;98631.56;;;18.42;80.54
59055;BME280;44845;51.444;7.460;2023-08-06T11:19:15;98637.41;;;18.32;76.77
59055;BME280;44845;51.444;7.460;2023-08-06T11:21:41;98633.94;;;18.46;78.11
59055;BME280;44845;51.444;7.460;2023-08-06T11:24:10;98639.06;;;18.50;79.20
59055;BME280;44845;51.444;7.460;2023-08-06T11:26:36;98636.88;;;18.56;78.53
59055;BME280;44845;51.444;7.460;2023-08-06T11:29:02;98641.25;;;18.57;78.07
59055;BME280;44845;51.444;7.460;2023-08-06T11:31:30;98636.59;;;18.61;78.47
59055;BME280;44845;51.444;7.460;2023-08-06T11:33:55;98641.16;;;18.59;78.90
59055;BME280;44845;51.444;7.460;2023-08-06T11:38:56;98625.41;;;18.71;79.30
59055;BME280;44845;51.444;7.460;2023-08-06T11:41:22;98628.63;;;18.76;78.25
59055;BME280;44845;51.444;7.460;2023-08-06T11:43:47;98630.19;;;18.80;76.63
59055;BME280;44845;51.444;7.460;2023-08-06T11:46:12;98620.75;;;18.45;68.70
59055;BME280;44845;51.444;7.460;2023-08-06T11:48:51;98622.50;;;18.75;71.63
59055;BME280;44845;51.444;7.460;2023-08-06T11:51:17;98626.38;;;18.84;73.92
59055;BME280;44845;51.444;7.460;2023-08-06T11:53:48;98631.00;;;18.80;69.91
59055;BME280;44845;51.444;7.460;2023-08-06T11:56:14;98634.22;;;18.71;68.83
59055;BME280;44845;51.444;7.460;2023-08-06T11:58:43;98635.78;;;18.90;73.09
59055;BME280;44845;51.444;7.460;2023-08-06T12:01:09;98640.00;;;18.93;69.57
59055;BME280;44845;51.444;7.460;2023-08-06T12:03:41;98637.16;;;18.96;69.00
59055;BME280;44845;51.444;7.460;2023-08-06T12:06:07;98640.28;;;19.02;71.21
59055;BME280;44845;51.444;7.460;2023-08-06T12:08:33;98635.34;;;19.11;72.79
59055;BME280;44845;51.444;7.460;2023-08-06T12:10:58;98637.91;;;19.12;73.90
59055;BME280;44845;51.444;7.460;2023-08-06T12:13:24;98633.09;;;19.05;74.61
59055;BME280;44845;51.444;7.460;2023-08-06T12:15:49;98640.28;;;19.02;75.36
59055;BME280;44845;51.444;7.460;2023-08-06T12:18:18;98647.91;;;18.79;75.53
59055;BME280;44845;51.444;7.460;2023-08-06T12:20:43;98650.28;;;18.70;76.37
59055;BME280;44845;51.444;7.460;2023-08-06T12:23:08;98666.66;;;18.62;75.96
59055;BME280;44845;51.444;7.460;2023-08-06T12:25:35;98653.75;;;18.41;75.68
59055;BME280;44845;51.444;7.460;2023-08-06T12:28:00;98663.19;;;18.30;77.79
59055;BME280;44845;51.444;7.460;2023-08-06T12:30:25;98668.78;;;18.09;79.58
59055;BME280;44845;51.444;7.460;2023-08-06T12:32:51;98668.31;;;17.86;81.50
59055;BME280;44845;51.444;7.460;2023-08-06T12:35:17;98686.03;;;17.86;83.88
59055;BME280;44845;51.444;7.460;2023-08-06T12:37:42;98683.47;;;17.84;85.52
59055;BME280;44845;51.444;7.460;2023-08-06T12:40:09;98688.34;;;17.76;87.67
59055;BME280;44845;51.444;7.460;2023-08-06T12:42:34;98695.78;;;17.53;88.08
59055;BME280;44845;51.444;7.460;2023-08-06T12:45:02;98695.00;;;17.35;87.44
59055;BME280;44845;51.444;7.460;2023-08-06T12:47:28;98699.28;;;17.37;89.27
59055;BME280;44845;51.444;7.460;2023-08-06T12:49:53;98700.31;;;17.35;89.75
59055;BME280;44845;51.444;7.460;2023-08-06T12:52:18;98707.13;;;17.22;89.89
59055;BME280;44845;51.444;7.460;2023-08-06T12:54:45;98713.31;;;17.05;90.66
59055;BME280;44845;51.444;7.460;2023-08-06T12:57:11;98722.91;;;16.90;91.13
59055;BME280;44845;51.444;7.460;2023-08-06T12:59:36;98723.78;;;16.55;92.04
59055;BME280;44845;51.444;7.460;2023-08-06T13:02:02;98726.06;;;16.63;92.22
59055;BME280;44845;51.444;7.460;2023-08-06T13:04:27;98728.94;;;16.58;91.06
59055;BME280;44845;51.444;7.460;2023-08-06T13:06:53;98735.25;;;16.55;91.30